Time;durP1;ratioP1;P1;durP2;ratioP2;P2;SDS_P1;SDS_P2;PMS_P1;PMS_P2;Temp;Humidity;BMP_temperature;BMP_pressure;BME280_temperature;BME280_humidity;BME280_pressure;Samples;Min_cycle;Max_cycle;Signal;HPM_P1;HPM_P2
2022/03/31 00:00:40;;;;;;;23.07;8.73;;;;;;;15.80;41.41;100125.16;2569377;23;20151;-68
2022/03/31 00:01:41;;;;;;;22.57;7.53;;;;;;;15.82;41.22;100128.22;2569264;23;20624;-68
2022/03/31 00:02:42;;;;;;;26.87;7.63;;;;;;;15.81;40.92;100123.91;2569140;23;20508;-69
2022/03/31 00:03:42;;;;;;;25.20;8.73;;;;;;;15.81;41.89;100123.91;2569193;23;20521;-68
2022/03/31 00:04:43;;;;;;;22.00;8.60;;;;;;;15.85;42.02;100116.13;2569498;23;20157;-68
2022/03/31 00:05:45;;;;;;;24.47;8.53;;;;;;;15.88;42.04;100120.75;2569600;23;20160;-68
2022/03/31 00:06:46;;;;;;;22.23;7.80;;;;;;;15.89;41.69;100114.66;2569487;23;20573;-68
2022/03/31 00:07:54;;;;;;;23.27;8.53;;;;;;;15.87;41.82;100122.75;2569561;23;20407;-68
2022/03/31 00:08:55;;;;;;;32.30;9.60;;;;;;;15.89;41.88;100125.84;2569324;23;20890;-68
2022/03/31 00:09:56;;;;;;;24.17;8.17;;;;;;;15.90;41.21;100123.81;2556332;23;20740;-68
2022/03/31 00:10:56;;;;;;;30.67;8.57;;;;;;;15.88;41.23;100120.75;2556414;23;20158;-68
2022/03/31 00:12:00;;;;;;;27.03;7.90;;;;;;;15.90;41.39;100132.22;2568957;23;20152;-68
2022/03/31 00:13:05;;;;;;;30.20;8.53;;;;;;;15.90;41.66;100123.81;2569232;23;20504;-68
2022/03/31 00:14:06;;;;;;;27.40;8.43;;;;;;;15.92;41.74;100129.69;2568859;23;20392;-68
2022/03/31 00:15:07;;;;;;;25.33;8.10;;;;;;;15.85;42.19;100113.31;2569407;23;20932;-69
2022/03/31 00:16:07;;;;;;;23.80;8.60;;;;;;;15.01;41.97;99978.94;2569351;23;20410;-68
2022/03/31 00:17:08;;;;;;;24.87;8.30;;;;;;;15.90;41.85;100127.41;2555964;23;20477;-68
2022/03/31 00:18:11;;;;;;;26.87;8.47;;;;;;;15.89;42.12;100122.28;2556618;23;20208;-68
2022/03/31 00:19:11;;;;;;;26.90;9.03;;;;;;;15.89;42.29;100134.22;2556078;23;20149;-68
2022/03/31 00:32:29;;;;;;;23.60;8.30;;;;;;;15.75;43.78;100111.84;2569151;23;20798;-68
2022/03/31 00:33:29;;;;;;;27.00;7.63;;;;;;;15.71;43.13;100114.06;2569199;23;20375;-68
2022/03/31 00:34:30;;;;;;;25.13;8.87;;;;;;;15.74;43.64;100110.31;2569191;23;20721;-68
2022/03/31 00:35:31;;;;;;;27.83;9.03;;;;;;;15.71;43.45;100117.63;2569437;23;20148;-68
2022/03/31 00:36:31;;;;;;;31.67;9.80;;;;;;;15.67;43.87;100116.28;2569235;23;20377;-68
2022/03/31 00:37:42;;;;;;;27.60;9.20;;;;;;;15.42;43.63;100089.63;2569566;23;20150;-68
2022/03/31 00:39:28;;;;;;;25.90;9.10;;;;;;;15.36;43.37;100119.47;2569350;23;20207;-68
2022/03/31 00:40:04;;;;;;;28.77;7.97;;;;;;;15.36;41.86;100107.56;2569495;23;20417;-68
2022/03/31 00:41:05;;;;;;;23.93;7.47;;;;;;;15.32;42.03;100110.47;2569295;23;20390;-68
2022/03/31 00:42:06;;;;;;;23.27;8.13;;;;;;;15.29;42.51;100113.44;2569193;23;20376;-68
2022/03/31 00:43:08;;;;;;;27.87;8.43;;;;;;;15.20;42.10;100094.75;2569079;23;20159;-68
2022/03/31 00:44:09;;;;;;;29.70;8.30;;;;;;;15.34;42.13;100115.63;2568871;23;20391;-68
2022/03/31 00:45:18;;;;;;;33.03;7.90;;;;;;;15.28;42.36;100109.91;2568970;23;20832;-68
2022/03/31 00:46:22;;;;;;;21.73;8.07;;;;;;;15.04;42.73;100083.22;2569622;23;20365;-68
2022/03/31 00:47:23;;;;;;;29.50;8.10;;;;;;;15.31;42.47;100110.97;2568809;23;20382;-68
2022/03/31 00:48:24;;;;;;;31.07;8.37;;;;;;;15.35;42.68;100111.56;2569290;23;20380;-68
2022/03/31 00:49:26;;;;;;;25.00;7.67;;;;;;;15.09;42.63;100071.41;2569314;23;20427;-69
2022/03/31 00:50:28;;;;;;;20.73;6.93;;;;;;;15.25;41.95;100104.47;2569388;23;20375;-68
2022/03/31 00:51:29;;;;;;;24.40;7.30;;;;;;;14.87;41.76;100045.84;2569612;23;20375;-68
2022/03/31 00:52:30;;;;;;;28.17;7.93;;;;;;;15.33;42.67;100106.50;2569034;23;20476;-68
2022/03/31 00:53:31;;;;;;;26.07;8.03;;;;;;;14.99;42.59;100051.19;2568753;23;20851;-68
2022/03/31 00:54:33;;;;;;;27.73;8.90;;;;;;;15.40;43.01;100108.13;2569204;23;20153;-68
2022/03/31 00:55:35;;;;;;;25.90;8.40;;;;;;;15.42;42.62;100102.84;2569488;23;20381;-68
2022/03/31 00:56:37;;;;;;;29.07;8.43;;;;;;;14.23;42.57;99927.59;2569173;23;20388;-69
2022/03/31 00:57:39;;;;;;;24.80;7.77;;;;;;;15.37;42.57;100101.47;2569318;23;20443;-69
2022/03/31 00:58:39;;;;;;;30.17;8.93;;;;;;;15.33;42.61;100095.31;2569338;23;20380;-68
2022/03/31 00:59:40;;;;;;;23.43;8.20;;;;;;;15.42;43.08;100094.47;2569518;23;20415;-68
2022/03/31 01:00:41;;;;;;;27.63;8.47;;;;;;;15.41;43.20;100090.13;2569396;23;20160;-69
2022/03/31 01:01:43;;;;;;;21.53;8.07;;;;;;;14.09;43.59;99884.47;2569076;23;20152;-69
2022/03/31 01:02:44;;;;;;;25.87;8.17;;;;;;;15.43;43.97;100085.59;2569079;23;20834;-69
2022/03/31 01:03:45;;;;;;;24.77;7.87;;;;;;;14.55;43.75;99961.00;2568637;23;20881;-69
2022/03/31 01:04:46;;;;;;;24.13;7.23;;;;;;;15.49;42.39;100088.50;2569076;23;20404;-69
2022/03/31 01:05:47;;;;;;;23.67;7.10;;;;;;;14.96;41.47;100007.50;2556251;23;20578;-68
2022/03/31 01:06:49;;;;;;;25.27;6.83;;;;;;;15.50;41.28;100084.47;2556162;23;20454;-69
2022/03/31 01:07:49;;;;;;;27.83;8.00;;;;;;;15.48;41.63;100090.50;2569427;23;20157;-69
2022/03/31 01:08:50;;;;;;;24.13;8.10;;;;;;;15.52;41.86;100091.09;2569361;23;20390;-69
2022/03/31 01:09:51;;;;;;;33.83;9.23;;;;;;;15.53;42.91;100095.44;2569496;23;20220;-69
2022/03/31 01:10:53;;;;;;;34.17;9.57;;;;;;;14.81;43.08;99992.72;2569172;23;20629;-69
2022/03/31 01:11:54;;;;;;;29.80;7.90;;;;;;;15.54;43.14;100096.22;2569063;23;20160;-68
2022/03/31 01:12:55;;;;;;;27.07;7.90;;;;;;;15.39;43.28;100067.50;2569464;23;20386;-68
2022/03/31 01:13:56;;;;;;;27.80;8.63;;;;;;;15.52;43.23;100088.31;2568599;23;20896;-68
2022/03/31 01:15:08;;;;;;;25.63;8.47;;;;;;;15.34;43.45;100060.56;2569492;23;20157;-68
2022/03/31 01:16:08;;;;;;;19.37;8.10;;;;;;;15.52;43.22;100084.78;2556244;23;20384;-68
2022/03/31 01:17:09;;;;;;;27.87;7.70;;;;;;;15.48;42.33;100078.59;2556059;23;20406;-68
2022/03/31 01:18:10;;;;;;;26.03;6.97;;;;;;;15.39;41.68;100087.81;2569609;23;20150;-68
2022/03/31 01:19:12;;;;;;;22.50;7.30;;;;;;;15.40;41.42;100094.16;2569208;23;20161;-69
2022/03/31 01:20:16;;;;;;;26.27;7.40;;;;;;;15.34;41.27;100090.50;2569446;23;20796;-69
2022/03/31 01:21:18;;;;;;;30.67;8.10;;;;;;;15.33;42.30;100100.91;2569193;23;20376;-68
2022/03/31 01:22:18;;;;;;;19.67;8.13;;;;;;;15.36;43.45;100101.97;2569163;23;20380;-68
2022/03/31 01:23:21;;;;;;;22.60;8.43;;;;;;;15.38;44.13;100097.41;2568786;23;20396;-68
2022/03/31 01:24:22;;;;;;;25.53;7.87;;;;;;;15.37;43.85;100097.94;2569026;23;20147;-68
2022/03/31 01:25:22;;;;;;;25.83;7.97;;;;;;;15.34;43.80;100098.88;2569572;23;20413;-69
2022/03/31 01:26:23;;;;;;;23.57;7.73;;;;;;;15.32;43.95;100088.13;2570198;23;20153;-69
2022/03/31 01:27:25;;;;;;;22.00;8.10;;;;;;;15.32;43.76;100088.13;2570017;23;20158;-68
2022/03/31 01:28:26;;;;;;;27.80;7.60;;;;;;;15.32;43.81;100087.38;2570206;23;20599;-69
2022/03/31 01:29:27;;;;;;;25.37;7.40;;;;;;;15.24;43.54;100075.81;2570180;23;20780;-69
2022/03/31 01:30:27;;;;;;;29.80;7.63;;;;;;;15.05;43.22;100060.44;2570278;23;20145;-69
2022/03/31 01:31:28;;;;;;;26.73;8.23;;;;;;;15.30;42.91;100084.28;2570294;23;20437;-69
2022/03/31 01:32:29;;;;;;;30.23;7.43;;;;;;;15.28;43.20;100084.78;2569597;23;20146;-69
2022/03/31 01:33:29;;;;;;;25.70;7.83;;;;;;;15.02;43.43;100055.03;2569961;23;20157;-69
2022/03/31 01:34:30;;;;;;;26.20;7.83;;;;;;;15.11;43.47;100063.34;2569759;23;20145;-68
2022/03/31 01:35:31;;;;;;;22.83;7.70;;;;;;;14.67;43.39;100003.84;2570210;23;20148;-68
2022/03/31 01:36:32;;;;;;;25.10;7.30;;;;;;;15.13;43.19;100075.59;2570039;23;20507;-68
2022/03/31 01:37:32;;;;;;;25.67;7.33;;;;;;;15.21;43.54;100096.28;2570357;23;20144;-68
2022/03/31 01:38:33;;;;;;;24.67;7.63;;;;;;;15.02;43.68;100064.16;2569944;23;20547;-68
2022/03/31 01:39:53;;;;;;;24.83;7.33;;;;;;;15.15;43.46;100092.63;2570360;23;20146;-69
2022/03/31 01:40:53;;;;;;;26.73;7.30;;;;;;;15.15;43.58;100098.19;2570088;23;20383;-69
2022/03/31 01:41:54;;;;;;;23.70;7.57;;;;;;;14.74;43.70;100029.34;2569737;23;20387;-69
2022/03/31 01:42:55;;;;;;;24.47;7.30;;;;;;;15.06;43.55;100075.94;2570089;23;20227;-69
2022/03/31 01:43:56;;;;;;;29.33;8.50;;;;;;;13.72;43.97;99885.91;2569250;23;20149;-69
2022/03/31 01:44:57;;;;;;;27.93;9.13;;;;;;;15.07;44.18;100099.78;2569746;23;20664;-69
2022/03/31 01:45:58;;;;;;;31.23;9.50;;;;;;;15.08;44.13;100108.94;2569999;23;20618;-69
2022/03/31 01:46:59;;;;;;;28.60;8.20;;;;;;;14.19;44.23;99974.34;2569978;23;20854;-69
2022/03/31 01:48:00;;;;;;;26.33;7.77;;;;;;;15.02;44.63;100110.84;2570214;23;20412;-69
2022/03/31 01:49:00;;;;;;;21.67;7.53;;;;;;;14.99;44.29;100109.00;2569923;23;20228;-69
2022/03/31 01:50:01;;;;;;;23.87;7.93;;;;;;;14.28;44.65;100002.97;2570407;23;20534;-68
2022/03/31 01:51:04;;;;;;;22.63;8.57;;;;;;;13.83;44.69;99941.84;2569973;23;20228;-69
2022/03/31 01:52:06;;;;;;;24.53;8.17;;;;;;;14.97;44.88;100101.09;2569946;23;20379;-69
2022/03/31 01:53:07;;;;;;;23.83;8.07;;;;;;;13.91;44.47;99945.06;2569909;23;20696;-69
2022/03/31 01:54:07;;;;;;;23.17;8.07;;;;;;;14.95;44.90;100102.81;2569249;23;20459;-69
2022/03/31 01:55:09;;;;;;;20.00;7.50;;;;;;;14.86;45.20;100091.72;2569862;23;20176;-69
2022/03/31 01:56:10;;;;;;;24.37;8.73;;;;;;;14.91;45.45;100103.00;2570052;23;20155;-69
2022/03/31 01:57:12;;;;;;;26.03;7.70;;;;;;;14.79;45.82;100084.47;2569804;23;20490;-69
2022/03/31 01:58:12;;;;;;;26.93;8.03;;;;;;;14.80;45.68;100088.06;2557287;23;20590;-69
2022/03/31 01:59:13;;;;;;;22.00;8.23;;;;;;;14.90;45.88;100106.28;2556655;23;20795;-69
2022/03/31 02:00:14;;;;;;;23.63;7.57;;;;;;;13.81;45.86;99938.78;2570314;23;20164;-69
2022/03/31 02:01:15;;;;;;;28.07;8.83;;;;;;;14.87;46.17;100098.84;2569947;23;20154;-69
2022/03/31 02:02:16;;;;;;;21.97;7.67;;;;;;;14.81;46.19;100092.38;2569691;23;20464;-69
2022/03/31 02:03:18;;;;;;;24.53;7.87;;;;;;;14.78;46.11;100091.31;2569736;23;20171;-69
2022/03/31 02:04:19;;;;;;;26.63;8.13;;;;;;;14.62;46.33;100069.41;2569776;23;20380;-69
2022/03/31 02:05:20;;;;;;;27.97;8.00;;;;;;;14.76;46.49;100084.66;2569772;23;20706;-69
2022/03/31 02:06:21;;;;;;;24.47;8.77;;;;;;;14.78;46.63;100082.94;2570382;23;20149;-69
2022/03/31 02:07:22;;;;;;;26.83;8.37;;;;;;;14.67;46.37;100060.38;2570011;23;20377;-69
2022/03/31 02:08:22;;;;;;;26.10;8.00;;;;;;;14.65;46.58;100068.44;2570447;23;20581;-69
2022/03/31 02:09:23;;;;;;;30.60;8.17;;;;;;;14.68;47.47;100078.66;2569748;23;20618;-69
2022/03/31 02:10:27;;;;;;;29.53;8.70;;;;;;;14.64;47.28;100075.25;2570174;23;20240;-68
2022/03/31 02:11:28;;;;;;;36.90;9.80;;;;;;;14.69;46.95;100074.63;2569934;23;20664;-68
2022/03/31 02:12:29;;;;;;;29.73;9.37;;;;;;;14.63;46.83;100065.38;2569548;23;20373;-68
2022/03/31 02:13:30;;;;;;;31.30;9.37;;;;;;;14.73;46.85;100066.06;2569700;23;20399;-68
2022/03/31 02:14:32;;;;;;;34.47;9.03;;;;;;;14.67;46.78;100060.38;2556010;23;20160;-68
2022/03/31 02:15:34;;;;;;;28.10;8.60;;;;;;;14.74;46.44;100073.19;2557337;23;20156;-69
2022/03/31 02:16:35;;;;;;;28.57;9.60;;;;;;;14.75;46.37;100075.50;2569563;23;20376;-68
2022/03/31 02:17:35;;;;;;;25.93;9.03;;;;;;;14.78;46.33;100069.00;2569821;23;20373;-68
2022/03/31 02:18:36;;;;;;;20.77;8.80;;;;;;;14.78;46.56;100073.78;2570092;23;20595;-68
2022/03/31 02:19:37;;;;;;;27.87;9.57;;;;;;;14.29;47.28;100000.97;2570154;23;20595;-69
2022/03/31 02:20:39;;;;;;;26.07;8.13;;;;;;;14.81;47.33;100073.63;2569856;23;20145;-68
2022/03/31 02:21:40;;;;;;;28.53;8.37;;;;;;;14.84;47.09;100074.69;2556327;23;20388;-68
2022/03/31 02:22:41;;;;;;;33.63;8.40;;;;;;;14.87;47.25;100076.53;2556879;23;20376;-68
2022/03/31 02:23:42;;;;;;;30.90;8.70;;;;;;;14.84;47.48;100069.09;2569497;23;20461;-68
2022/03/31 02:24:43;;;;;;;26.47;8.93;;;;;;;14.86;47.30;100067.38;2569555;23;20156;-68
2022/03/31 02:25:44;;;;;;;31.17;9.00;;;;;;;13.93;46.99;99931.47;2570045;23;20453;-68
2022/03/31 02:26:45;;;;;;;36.50;9.70;;;;;;;14.87;47.13;100066.16;2569842;23;20606;-68
2022/03/31 02:27:51;;;;;;;27.07;8.70;;;;;;;14.86;46.86;100067.38;2570079;23;20159;-68
2022/03/31 02:28:52;;;;;;;29.93;8.23;;;;;;;14.36;46.86;100004.19;2569866;23;20359;-68
2022/03/31 02:29:52;;;;;;;28.53;7.70;;;;;;;14.34;46.87;100006.66;2569966;23;20431;-68
2022/03/31 02:30:53;;;;;;;24.23;7.93;;;;;;;14.68;47.64;100061.94;2569903;23;20152;-68
2022/03/31 02:31:53;;;;;;;22.07;7.37;;;;;;;14.69;48.04;100060.69;2569565;23;20234;-68
2022/03/31 02:32:54;;;;;;;24.27;7.87;;;;;;;14.70;48.22;100067.78;2569833;23;20228;-69
2022/03/31 02:33:55;;;;;;;23.87;7.50;;;;;;;14.59;48.23;100038.88;2569290;23;20599;-68
2022/03/31 02:34:57;;;;;;;22.43;7.83;;;;;;;13.78;48.21;99920.22;2569654;23;20160;-68
2022/03/31 02:35:57;;;;;;;29.90;8.40;;;;;;;14.77;48.03;100055.53;2569950;23;20380;-68
2022/03/31 02:36:58;;;;;;;25.40;8.17;;;;;;;14.67;47.73;100037.28;2569799;23;20382;-68
2022/03/31 02:37:58;;;;;;;26.43;8.60;;;;;;;13.94;47.40;99927.44;2569943;23;20172;-68
2022/03/31 02:38:59;;;;;;;31.03;8.67;;;;;;;14.53;47.68;100044.34;2569724;23;20215;-68
2022/03/31 02:39:59;;;;;;;31.87;9.13;;;;;;;14.34;47.65;100028.19;2570142;23;20568;-68
2022/03/31 02:41:01;;;;;;;27.10;8.70;;;;;;;14.42;47.40;100065.63;2569762;23;20152;-69
2022/03/31 02:42:01;;;;;;;28.50;8.30;;;;;;;14.30;47.42;100058.25;2569590;23;20250;-69
2022/03/31 02:43:02;;;;;;;29.73;8.73;;;;;;;14.33;46.96;100049.72;2569715;23;20372;-69
2022/03/31 02:44:03;;;;;;;26.77;9.70;;;;;;;13.36;47.04;99913.09;2569383;23;20162;-68
2022/03/31 02:45:05;;;;;;;27.97;8.13;;;;;;;14.27;47.25;100048.03;2568975;23;20476;-68
2022/03/31 02:46:08;;;;;;;27.70;9.27;;;;;;;14.26;47.38;100038.91;2569731;23;20383;-69
2022/03/31 02:47:09;;;;;;;28.57;8.50;;;;;;;14.26;47.87;100050.06;2569805;23;20545;-69
2022/03/31 02:48:09;;;;;;;26.63;8.83;;;;;;;14.28;47.71;100044.78;2570113;23;20804;-69
2022/03/31 02:49:10;;;;;;;22.67;8.63;;;;;;;14.28;47.62;100061.50;2569727;23;20501;-69
2022/03/31 02:50:11;;;;;;;30.60;9.03;;;;;;;14.22;47.76;100059.81;2570071;23;20499;-69
2022/03/31 02:51:12;;;;;;;25.30;8.90;;;;;;;14.22;47.46;100066.16;2569706;23;20437;-69
2022/03/31 02:52:12;;;;;;;23.07;8.03;;;;;;;13.76;47.38;99974.81;2569666;23;20472;-69
2022/03/31 02:55:51;;;;;;;25.63;7.90;;;;;;;13.94;47.43;100039.59;2569666;23;20360;-68
2022/03/31 02:56:52;;;;;;;25.47;8.17;;;;;;;12.93;47.93;99896.78;2569666;23;20424;-69
2022/03/31 02:57:53;;;;;;;27.20;7.73;;;;;;;13.10;48.19;99936.94;2569980;23;20159;-68
2022/03/31 02:58:54;;;;;;;26.50;8.30;;;;;;;13.94;48.44;100044.41;2569751;23;20155;-68
2022/03/31 02:59:54;;;;;;;26.80;8.70;;;;;;;13.82;48.46;100011.94;2569852;23;20413;-68
2022/03/31 03:00:56;;;;;;;28.40;8.10;;;;;;;14.06;48.22;100038.66;2569817;23;20179;-69
2022/03/31 03:01:58;;;;;;;26.63;8.63;;;;;;;14.07;47.70;100033.84;2569523;23;20159;-69
2022/03/31 03:03:00;;;;;;;23.83;7.87;;;;;;;14.06;47.22;100035.06;2569667;23;20376;-69
2022/03/31 03:04:01;;;;;;;29.03;9.20;;;;;;;13.93;47.37;100015.03;2555959;23;20396;-68
2022/03/31 03:05:02;;;;;;;24.63;8.20;;;;;;;13.78;47.55;100006.53;2556543;23;20578;-69
2022/03/31 03:06:03;;;;;;;26.47;8.70;;;;;;;13.87;47.67;100019.66;2569788;23;20379;-69
2022/03/31 03:07:04;;;;;;;30.50;8.20;;;;;;;12.95;48.56;99885.94;2569576;23;20180;-69
2022/03/31 03:08:05;;;;;;;24.93;7.60;;;;;;;13.76;49.13;100025.75;2569983;23;20407;-68
2022/03/31 03:09:06;;;;;;;23.50;7.70;;;;;;;13.33;48.69;99947.44;2569444;23;20392;-68
2022/03/31 03:10:08;;;;;;;22.27;7.70;;;;;;;13.77;48.57;99995.88;2570130;23;20149;-68
2022/03/31 03:11:08;;;;;;;23.93;7.60;;;;;;;13.94;48.44;100011.75;2569516;23;20383;-68
2022/03/31 03:12:10;;;;;;;24.30;7.70;;;;;;;13.94;48.22;100014.53;2556190;23;20476;-69
2022/03/31 03:13:11;;;;;;;25.03;7.83;;;;;;;13.71;48.04;99990.16;2556761;23;20153;-68
2022/03/31 03:14:13;;;;;;;25.73;8.10;;;;;;;13.80;48.14;100018.00;2569128;23;20387;-69
2022/03/31 03:15:14;;;;;;;22.90;7.73;;;;;;;13.70;48.43;100010.13;2569604;23;20218;-68
2022/03/31 03:16:15;;;;;;;29.43;8.03;;;;;;;13.39;48.61;99974.16;2569434;23;20383;-69
2022/03/31 03:17:15;;;;;;;28.87;8.80;;;;;;;13.43;48.97;100015.75;2569663;23;20238;-69
2022/03/31 03:18:18;;;;;;;26.63;8.33;;;;;;;12.99;49.41;99936.66;2569922;23;20152;-69
2022/03/31 03:19:19;;;;;;;24.10;7.80;;;;;;;13.56;49.58;100016.34;2569620;23;20147;-69
2022/03/31 03:20:19;;;;;;;27.97;8.27;;;;;;;12.98;49.26;99915.66;2569911;23;20375;-69
2022/03/31 03:21:20;;;;;;;20.13;7.33;;;;;;;13.60;49.05;100006.59;2569497;23;20435;-68
2022/03/31 03:22:21;;;;;;;20.90;7.53;;;;;;;13.64;48.87;100007.22;2569564;23;20152;-68
2022/03/31 03:23:21;;;;;;;31.83;8.70;;;;;;;13.81;48.93;100022.31;2569214;23;20393;-69
2022/03/31 03:24:22;;;;;;;26.20;9.17;;;;;;;13.80;48.83;100014.44;2569647;23;20228;-69
2022/03/31 03:25:23;;;;;;;32.30;9.17;;;;;;;13.88;48.94;100018.44;2569642;23;20148;-69
2022/03/31 03:26:24;;;;;;;29.37;8.23;;;;;;;13.76;48.58;99999.91;2569567;23;20151;-69
2022/03/31 03:27:26;;;;;;;28.47;8.27;;;;;;;13.79;48.92;100015.69;2569562;23;20377;-69
2022/03/31 03:28:29;;;;;;;31.80;9.37;;;;;;;13.80;48.73;100009.66;2569719;23;20151;-69
2022/03/31 03:29:30;;;;;;;28.30;8.20;;;;;;;13.75;49.01;100009.50;2569859;23;20427;-69
2022/03/31 03:30:30;;;;;;;28.10;7.90;;;;;;;13.75;49.17;100021.41;2569641;23;20401;-69
2022/03/31 03:31:31;;;;;;;29.90;7.80;;;;;;;13.70;49.23;100004.56;2569848;23;20489;-69
2022/03/31 03:32:32;;;;;;;24.10;7.77;;;;;;;13.82;49.04;100028.66;2569170;23;20232;-69
2022/03/31 03:33:34;;;;;;;24.47;8.03;;;;;;;13.86;48.98;100012.56;2569239;23;20157;-69
2022/03/31 03:34:34;;;;;;;22.40;7.97;;;;;;;13.92;48.76;100021.81;2569336;23;20615;-69
2022/03/31 03:35:35;;;;;;;23.80;7.27;;;;;;;13.95;48.67;100024.44;2569757;23;20798;-69
2022/03/31 03:36:35;;;;;;;23.53;7.40;;;;;;;13.97;48.97;100024.75;2569248;23;20257;-69
2022/03/31 03:37:38;;;;;;;18.93;7.13;;;;;;;13.97;48.73;100015.59;2569910;23;20553;-69
2022/03/31 03:38:40;;;;;;;21.57;7.20;;;;;;;13.95;48.95;100018.88;2569507;23;20207;-69
2022/03/31 03:39:40;;;;;;;15.93;6.43;;;;;;;13.94;48.92;100014.53;2569756;23;20380;-69
2022/03/31 03:40:42;;;;;;;23.83;7.27;;;;;;;13.97;48.82;100008.03;2569702;23;20393;-69
2022/03/31 03:41:43;;;;;;;21.63;6.93;;;;;;;13.94;48.69;100020.09;2569163;23;20162;-69
2022/03/31 03:42:44;;;;;;;24.33;7.43;;;;;;;13.87;48.81;100002.94;2569621;23;20461;-69
2022/03/31 03:43:44;;;;;;;27.83;7.93;;;;;;;13.99;48.99;100019.47;2569164;23;20678;-69
2022/03/31 03:44:45;;;;;;;34.23;8.10;;;;;;;13.86;49.10;99993.06;2569378;23;20230;-69
2022/03/31 03:45:45;;;;;;;23.27;7.33;;;;;;;13.76;49.01;99989.53;2569757;23;20149;-69
2022/03/31 03:46:46;;;;;;;24.80;7.40;;;;;;;14.00;48.86;100015.47;2569000;23;20608;-69
2022/03/31 03:47:48;;;;;;;28.03;8.40;;;;;;;13.83;48.65;99978.06;2569631;23;20237;-69
2022/03/31 03:48:49;;;;;;;20.20;8.20;;;;;;;14.03;48.53;100008.94;2555976;23;20153;-69
2022/03/31 03:49:50;;;;;;;21.23;8.60;;;;;;;14.04;48.50;100007.69;2556480;23;20427;-69
2022/03/31 03:50:50;;;;;;;24.17;7.60;;;;;;;14.05;48.87;100008.47;2569587;23;20189;-69
2022/03/31 03:51:51;;;;;;;23.97;7.33;;;;;;;14.06;49.16;100007.22;2569390;23;20161;-69
2022/03/31 03:53:10;;;;;;;24.27;7.63;;;;;;;14.06;49.27;100010.78;2569650;23;20154;-69
2022/03/31 03:54:11;;;;;;;21.77;8.20;;;;;;;12.95;49.04;99841.44;2569122;23;20141;-69
2022/03/31 03:55:12;;;;;;;23.10;7.80;;;;;;;13.00;49.14;99851.97;2569519;23;20706;-69
2022/03/31 03:56:13;;;;;;;22.13;7.77;;;;;;;13.95;49.17;99991.03;2569460;23;20374;-69
2022/03/31 03:57:13;;;;;;;25.47;7.53;;;;;;;14.07;49.27;100011.53;2569189;23;20235;-69
2022/03/31 03:58:14;;;;;;;22.87;7.63;;;;;;;14.07;49.31;100014.31;2569863;23;20163;-69
2022/03/31 03:59:15;;;;;;;24.13;7.93;;;;;;;14.08;49.36;100015.91;2569430;23;20607;-69
2022/03/31 04:00:18;;;;;;;26.57;8.27;;;;;;;13.73;49.61;99959.84;2569806;23;20771;-69
2022/03/31 04:01:19;;;;;;;22.90;7.87;;;;;;;14.01;49.58;100002.28;2569429;23;20589;-69
2022/03/31 04:02:20;;;;;;;27.33;9.17;;;;;;;13.95;49.62;99990.25;2569256;23;20375;-69
2022/03/31 04:03:21;;;;;;;25.97;8.93;;;;;;;13.96;49.55;99989.00;2569121;23;20385;-68
2022/03/31 04:04:21;;;;;;;23.00;7.97;;;;;;;14.03;49.55;100011.72;2569452;23;20376;-69
2022/03/31 04:05:22;;;;;;;29.57;9.03;;;;;;;13.71;49.86;99962.31;2569344;23;20552;-69
2022/03/31 04:06:23;;;;;;;29.47;8.77;;;;;;;13.99;49.72;100013.13;2569567;23;20227;-69
2022/03/31 04:07:23;;;;;;;27.23;10.40;;;;;;;13.87;49.86;100006.50;2568003;23;20147;-69
2022/03/31 04:08:24;;;;;;;27.67;9.80;;;;;;;13.74;50.00;100000.34;2568683;23;20159;-68
2022/03/31 04:09:25;;;;;;;34.47;10.33;;;;;;;13.71;50.42;100006.88;2568498;23;20188;-69
2022/03/31 04:10:26;;;;;;;25.00;9.93;;;;;;;13.71;50.38;100004.09;2569748;23;20262;-69
2022/03/31 04:11:26;;;;;;;27.60;10.07;;;;;;;13.71;50.59;100006.88;2569561;23;20165;-69
2022/03/31 04:12:27;;;;;;;26.03;9.03;;;;;;;13.74;50.68;100005.16;2568880;23;20179;-69
2022/03/31 04:13:27;;;;;;;25.90;9.57;;;;;;;13.76;50.66;99999.91;2569033;23;20196;-69
2022/03/31 04:14:28;;;;;;;25.77;9.77;;;;;;;13.80;50.63;100009.66;2569238;23;20147;-69
2022/03/31 04:15:28;;;;;;;32.67;9.87;;;;;;;13.54;50.50;99966.72;2556233;23;20553;-69
2022/03/31 04:16:29;;;;;;;27.27;10.20;;;;;;;13.79;50.39;99999.72;2555752;23;20369;-69
2022/03/31 04:17:29;;;;;;;30.47;10.30;;;;;;;13.41;50.20;99937.50;2569281;23;20175;-69
2022/03/31 04:18:30;;;;;;;31.27;9.63;;;;;;;13.94;50.47;100008.22;2568618;23;20144;-69
2022/03/31 04:19:31;;;;;;;27.00;9.80;;;;;;;13.34;50.33;99929.50;2569608;23;20154;-69
2022/03/31 04:20:31;;;;;;;24.53;9.43;;;;;;;13.51;50.36;99939.81;2556127;23;20166;-69
2022/03/31 04:21:32;;;;;;;28.67;10.20;;;;;;;13.97;50.52;100015.59;2556183;23;20146;-69
2022/03/31 04:22:33;;;;;;;27.80;9.60;;;;;;;13.96;50.48;100009.28;2569038;23;20146;-69
2022/03/31 04:23:34;;;;;;;34.57;10.07;;;;;;;13.99;50.28;100018.72;2569046;23;20412;-69
2022/03/31 04:24:34;;;;;;;26.03;10.30;;;;;;;13.93;50.43;100003.88;2569118;23;20384;-69
2022/03/31 04:25:35;;;;;;;31.40;9.63;;;;;;;13.93;50.16;100001.84;2569321;23;20146;-69
2022/03/31 04:26:36;;;;;;;26.23;9.87;;;;;;;14.01;50.36;100005.84;2555873;23;20156;-69
2022/03/31 04:27:38;;;;;;;33.70;10.83;;;;;;;14.02;50.47;100003.81;2556247;23;20148;-69
2022/03/31 04:28:39;;;;;;;26.37;10.07;;;;;;;13.36;50.45;99916.66;2568909;23;20507;-69
2022/03/31 04:29:39;;;;;;;29.37;10.57;;;;;;;13.19;50.38;99879.31;2569069;23;20428;-69
2022/03/31 04:30:40;;;;;;;28.37;9.90;;;;;;;14.03;50.27;100000.56;2569492;23;20152;-69
2022/03/31 04:31:43;;;;;;;31.50;9.93;;;;;;;14.02;50.45;99999.03;2568949;23;20149;-69
2022/03/31 04:32:43;;;;;;;44.27;11.77;;;;;;;14.06;50.32;100001.66;2569157;23;20155;-69
2022/03/31 04:33:44;;;;;;;40.87;12.03;;;;;;;13.29;50.17;99878.03;2568795;23;20469;-69
2022/03/31 04:34:45;;;;;;;31.77;11.53;;;;;;;14.11;49.98;99995.44;2569074;23;20667;-69
2022/03/31 04:35:46;;;;;;;41.33;12.13;;;;;;;13.49;50.05;99894.19;2569280;23;20202;-69
2022/03/31 04:36:47;;;;;;;39.47;11.93;;;;;;;14.14;49.96;100003.63;2568120;23;20158;-69
2022/03/31 04:37:47;;;;;;;38.90;11.63;;;;;;;14.11;50.60;99998.22;2569299;23;20162;-69
2022/03/31 04:38:48;;;;;;;41.20;11.50;;;;;;;13.23;50.43;99856.88;2568908;23;20411;-69
2022/03/31 04:39:48;;;;;;;35.13;11.73;;;;;;;14.17;50.37;99994.31;2568509;23;20172;-69
2022/03/31 04:40:49;;;;;;;34.20;11.23;;;;;;;14.18;50.45;99997.88;2568971;23;20198;-69
2022/03/31 04:41:50;;;;;;;34.50;12.30;;;;;;;14.22;51.06;99987.34;2568468;23;20159;-69
2022/03/31 04:42:51;;;;;;;46.10;14.03;;;;;;;14.22;50.96;99990.94;2568258;23;20676;-69
2022/03/31 04:43:51;;;;;;;43.70;14.10;;;;;;;14.24;50.54;100023.91;2568202;23;20762;-69
2022/03/31 04:44:52;;;;;;;33.27;11.50;;;;;;;14.23;50.65;99988.91;2568061;23;20262;-69
2022/03/31 04:45:53;;;;;;;28.37;10.20;;;;;;;14.19;50.62;99986.28;2555412;23;20164;-69
2022/03/31 04:46:53;;;;;;;35.73;10.60;;;;;;;14.16;49.97;99987.22;2554883;23;20150;-69
2022/03/31 04:47:54;;;;;;;31.90;11.07;;;;;;;14.16;49.93;99986.44;2568516;23;20202;-69
2022/03/31 04:48:55;;;;;;;26.47;10.10;;;;;;;14.20;49.92;99987.06;2568711;23;20614;-69
2022/03/31 04:49:55;;;;;;;28.13;10.73;;;;;;;13.32;49.94;99852.03;2568190;23;20186;-69
2022/03/31 04:50:56;;;;;;;33.57;10.37;;;;;;;13.21;49.95;99834.31;2568146;23;20508;-69
2022/03/31 04:51:57;;;;;;;35.83;10.30;;;;;;;13.68;49.86;99890.09;2566137;23;20254;-69
2022/03/31 04:52:57;;;;;;;23.70;9.63;;;;;;;13.44;49.72;99853.88;2565145;23;20837;-69
2022/03/31 04:53:58;;;;;;;25.23;9.93;;;;;;;14.33;49.49;99987.59;2557510;23;20276;-69
2022/03/31 04:54:58;;;;;;;27.83;9.97;;;;;;;14.32;49.87;99986.06;2564197;23;20152;-69
2022/03/31 04:55:59;;;;;;;32.77;10.70;;;;;;;13.94;49.87;99933.75;2565470;23;20161;-70
2022/03/31 04:57:00;;;;;;;34.37;11.23;;;;;;;14.24;49.73;99980.06;2546486;23;20497;-68
2022/03/31 04:58:00;;;;;;;33.10;10.47;;;;;;;14.39;49.58;99983.72;2548630;23;20154;-68